sensor_id;sensor_type;location;lat;lon;timestamp;P1;durP1;ratioP1;P2;durP2;ratioP2
77089;SDS011;66028;53.558;9.950;2024-02-23T00:04:16;1.40;;;0.20;;
77089;SDS011;66028;53.558;9.950;2024-02-23T00:06:43;1.23;;;0.17;;
77089;SDS011;66028;53.558;9.950;2024-02-23T00:09:09;1.07;;;0.20;;
77089;SDS011;66028;53.558;9.950;2024-02-23T00:14:04;1.02;;;0.30;;
77089;SDS011;66028;53.558;9.950;2024-02-23T00:18:55;2.53;;;0.60;;
77089;SDS011;66028;53.558;9.950;2024-02-23T00:23:45;3.00;;;0.70;;
77089;SDS011;66028;53.558;9.950;2024-02-23T00:28:36;2.40;;;0.47;;
77089;SDS011;66028;53.558;9.950;2024-02-23T00:33:26;1.67;;;0.60;;
77089;SDS011;66028;53.558;9.950;2024-02-23T00:38:17;1.83;;;0.40;;
77089;SDS011;66028;53.558;9.950;2024-02-23T00:40:42;0.73;;;0.40;;
77089;SDS011;66028;53.558;9.950;2024-02-23T00:43:07;0.90;;;0.30;;
77089;SDS011;66028;53.558;9.950;2024-02-23T00:45:33;0.67;;;0.30;;
77089;SDS011;66028;53.558;9.950;2024-02-23T00:50:24;2.55;;;0.32;;
77089;SDS011;66028;53.558;9.950;2024-02-23T00:52:51;0.38;;;0.10;;
77089;SDS011;66028;53.558;9.950;2024-02-23T00:55:17;0.28;;;0.10;;
77089;SDS011;66028;53.558;9.950;2024-02-23T01:00:08;0.37;;;0.10;;
77089;SDS011;66028;53.558;9.950;2024-02-23T01:02:34;0.32;;;0.10;;
77089;SDS011;66028;53.558;9.950;2024-02-23T01:04:59;0.88;;;0.30;;
77089;SDS011;66028;53.558;9.950;2024-02-23T01:07:25;0.97;;;0.10;;
77089;SDS011;66028;53.558;9.950;2024-02-23T01:09:50;0.10;;;0.00;;
77089;SDS011;66028;53.558;9.950;2024-02-23T01:12:15;0.57;;;0.10;;
77089;SDS011;66028;53.558;9.950;2024-02-23T01:14:41;1.20;;;0.10;;
77089;SDS011;66028;53.558;9.950;2024-02-23T01:19:31;0.27;;;0.10;;
77089;SDS011;66028;53.558;9.950;2024-02-23T01:21:56;0.77;;;0.10;;
77089;SDS011;66028;53.558;9.950;2024-02-23T01:24:25;0.35;;;0.10;;
77089;SDS011;66028;53.558;9.950;2024-02-23T01:26:52;0.50;;;0.20;;
77089;SDS011;66028;53.558;9.950;2024-02-23T01:29:19;0.30;;;0.10;;
77089;SDS011;66028;53.558;9.950;2024-02-23T01:31:44;0.20;;;0.10;;
77089;SDS011;66028;53.558;9.950;2024-02-23T01:36:35;0.77;;;0.20;;
77089;SDS011;66028;53.558;9.950;2024-02-23T01:41:26;2.93;;;0.10;;
77089;SDS011;66028;53.558;9.950;2024-02-23T01:43:51;0.93;;;0.10;;
77089;SDS011;66028;53.558;9.950;2024-02-23T01:46:17;0.65;;;0.08;;
77089;SDS011;66028;53.558;9.950;2024-02-23T01:48:44;0.28;;;0.10;;
77089;SDS011;66028;53.558;9.950;2024-02-23T01:51:10;0.13;;;0.10;;
77089;SDS011;66028;53.558;9.950;2024-02-23T01:53:36;0.10;;;0.08;;
77089;SDS011;66028;53.558;9.950;2024-02-23T01:56:02;0.20;;;0.10;;
77089;SDS011;66028;53.558;9.950;2024-02-23T01:58:28;0.35;;;0.08;;
77089;SDS011;66028;53.558;9.950;2024-02-23T02:00:54;0.20;;;0.10;;
77089;SDS011;66028;53.558;9.950;2024-02-23T02:03:20;0.17;;;0.00;;
77089;SDS011;66028;53.558;9.950;2024-02-23T02:05:45;1.40;;;0.03;;
77089;SDS011;66028;53.558;9.950;2024-02-23T02:08:10;0.00;;;0.00;;
77089;SDS011;66028;53.558;9.950;2024-02-23T02:10:36;0.35;;;0.00;;
77089;SDS011;66028;53.558;9.950;2024-02-23T02:13:02;0.00;;;0.00;;
77089;SDS011;66028;53.558;9.950;2024-02-23T02:15:29;0.40;;;0.00;;
77089;SDS011;66028;53.558;9.950;2024-02-23T02:17:54;0.00;;;0.00;;
77089;SDS011;66028;53.558;9.950;2024-02-23T02:20:19;0.10;;;0.00;;
77089;SDS011;66028;53.558;9.950;2024-02-23T02:22:49;0.00;;;0.00;;
77089;SDS011;66028;53.558;9.950;2024-02-23T02:25:15;0.00;;;0.00;;
77089;SDS011;66028;53.558;9.950;2024-02-23T02:27:43;0.00;;;0.00;;
77089;SDS011;66028;53.558;9.950;2024-02-23T02:30:10;2.22;;;0.10;;
77089;SDS011;66028;53.558;9.950;2024-02-23T02:32:36;0.17;;;0.13;;
77089;SDS011;66028;53.558;9.950;2024-02-23T02:35:02;0.47;;;0.00;;
77089;SDS011;66028;53.558;9.950;2024-02-23T02:37:27;0.10;;;0.00;;
77089;SDS011;66028;53.558;9.950;2024-02-23T02:39:52;0.13;;;0.00;;
77089;SDS011;66028;53.558;9.950;2024-02-23T02:42:18;0.00;;;0.00;;
77089;SDS011;66028;53.558;9.950;2024-02-23T02:47:08;0.00;;;0.00;;
77089;SDS011;66028;53.558;9.950;2024-02-23T02:49:33;0.00;;;0.00;;
77089;SDS011;66028;53.558;9.950;2024-02-23T02:51:59;0.30;;;0.00;;
77089;SDS011;66028;53.558;9.950;2024-02-23T02:54:24;0.85;;;0.05;;
77089;SDS011;66028;53.558;9.950;2024-02-23T02:56:49;1.50;;;0.00;;
77089;SDS011;66028;53.558;9.950;2024-02-23T02:59:15;0.00;;;0.00;;
77089;SDS011;66028;53.558;9.950;2024-02-23T03:01:40;0.20;;;0.00;;
77089;SDS011;66028;53.558;9.950;2024-02-23T03:04:07;0.23;;;0.00;;
77089;SDS011;66028;53.558;9.950;2024-02-23T03:06:33;0.95;;;0.10;;
77089;SDS011;66028;53.558;9.950;2024-02-23T03:08:58;0.47;;;0.00;;
77089;SDS011;66028;53.558;9.950;2024-02-23T03:11:24;0.20;;;0.00;;
77089;SDS011;66028;53.558;9.950;2024-02-23T03:13:49;0.63;;;0.10;;
77089;SDS011;66028;53.558;9.950;2024-02-23T03:16:17;0.50;;;0.07;;
77089;SDS011;66028;53.558;9.950;2024-02-23T03:18:43;0.65;;;0.00;;
77089;SDS011;66028;53.558;9.950;2024-02-23T03:21:08;0.30;;;0.00;;
77089;SDS011;66028;53.558;9.950;2024-02-23T03:23:34;2.30;;;0.22;;
77089;SDS011;66028;53.558;9.950;2024-02-23T03:26:03;9.13;;;3.35;;
77089;SDS011;66028;53.558;9.950;2024-02-23T03:28:28;5.90;;;2.80;;
77089;SDS011;66028;53.558;9.950;2024-02-23T03:30:53;5.10;;;1.43;;
77089;SDS011;66028;53.558;9.950;2024-02-23T03:33:19;6.87;;;2.13;;
77089;SDS011;66028;53.558;9.950;2024-02-23T03:35:44;7.67;;;2.97;;
77089;SDS011;66028;53.558;9.950;2024-02-23T03:38:09;7.60;;;2.47;;
77089;SDS011;66028;53.558;9.950;2024-02-23T03:40:35;3.75;;;1.20;;
77089;SDS011;66028;53.558;9.950;2024-02-23T03:43:01;4.72;;;1.52;;
77089;SDS011;66028;53.558;9.950;2024-02-23T03:47:52;4.57;;;1.93;;
77089;SDS011;66028;53.558;9.950;2024-02-23T03:50:17;12.67;;;4.20;;
77089;SDS011;66028;53.558;9.950;2024-02-23T03:52:42;6.57;;;1.40;;
77089;SDS011;66028;53.558;9.950;2024-02-23T03:55:08;1.07;;;0.17;;
77089;SDS011;66028;53.558;9.950;2024-02-23T03:57:33;1.25;;;0.25;;
77089;SDS011;66028;53.558;9.950;2024-02-23T03:59:58;1.80;;;0.53;;
77089;SDS011;66028;53.558;9.950;2024-02-23T04:02:24;2.13;;;0.37;;
77089;SDS011;66028;53.558;9.950;2024-02-23T04:04:49;1.37;;;0.10;;
77089;SDS011;66028;53.558;9.950;2024-02-23T04:07:15;0.20;;;0.10;;
77089;SDS011;66028;53.558;9.950;2024-02-23T04:09:40;0.43;;;0.30;;
77089;SDS011;66028;53.558;9.950;2024-02-23T04:12:06;0.33;;;0.13;;
77089;SDS011;66028;53.558;9.950;2024-02-23T04:16:58;0.80;;;0.20;;
77089;SDS011;66028;53.558;9.950;2024-02-23T04:19:24;1.47;;;0.20;;
77089;SDS011;66028;53.558;9.950;2024-02-23T04:21:49;0.23;;;0.13;;
77089;SDS011;66028;53.558;9.950;2024-02-23T04:24:14;1.37;;;0.30;;
77089;SDS011;66028;53.558;9.950;2024-02-23T04:26:39;0.43;;;0.10;;
77089;SDS011;66028;53.558;9.950;2024-02-23T04:29:05;0.40;;;0.20;;
77089;SDS011;66028;53.558;9.950;2024-02-23T04:31:30;0.57;;;0.20;;
77089;SDS011;66028;53.558;9.950;2024-02-23T04:33:55;0.90;;;0.27;;
77089;SDS011;66028;53.558;9.950;2024-02-23T04:36:20;1.37;;;0.33;;
77089;SDS011;66028;53.558;9.950;2024-02-23T04:38:46;0.82;;;0.40;;
77089;SDS011;66028;53.558;9.950;2024-02-23T04:41:11;1.27;;;0.40;;
77089;SDS011;66028;53.558;9.950;2024-02-23T04:43:36;1.50;;;0.20;;
77089;SDS011;66028;53.558;9.950;2024-02-23T04:46:02;1.93;;;0.50;;
77089;SDS011;66028;53.558;9.950;2024-02-23T04:48:27;0.50;;;0.20;;
77089;SDS011;66028;53.558;9.950;2024-02-23T04:50:52;0.73;;;0.40;;
77089;SDS011;66028;53.558;9.950;2024-02-23T04:53:18;1.87;;;0.40;;
77089;SDS011;66028;53.558;9.950;2024-02-23T04:55:44;1.10;;;0.47;;
77089;SDS011;66028;53.558;9.950;2024-02-23T04:58:09;2.67;;;0.50;;
77089;SDS011;66028;53.558;9.950;2024-02-23T05:00:36;3.95;;;0.50;;
77089;SDS011;66028;53.558;9.950;2024-02-23T05:03:02;1.13;;;0.65;;
77089;SDS011;66028;53.558;9.950;2024-02-23T05:07:54;1.40;;;0.63;;
77089;SDS011;66028;53.558;9.950;2024-02-23T05:10:19;2.80;;;0.50;;
77089;SDS011;66028;53.558;9.950;2024-02-23T05:12:45;4.85;;;0.82;;
77089;SDS011;66028;53.558;9.950;2024-02-23T05:15:11;3.87;;;0.73;;
77089;SDS011;66028;53.558;9.950;2024-02-23T05:17:36;2.63;;;0.80;;
77089;SDS011;66028;53.558;9.950;2024-02-23T05:20:01;2.63;;;0.70;;
77089;SDS011;66028;53.558;9.950;2024-02-23T05:22:32;3.03;;;0.88;;
77089;SDS011;66028;53.558;9.950;2024-02-23T05:24:58;1.30;;;0.60;;
77089;SDS011;66028;53.558;9.950;2024-02-23T05:27:23;4.23;;;0.67;;
77089;SDS011;66028;53.558;9.950;2024-02-23T05:29:48;1.53;;;0.80;;
77089;SDS011;66028;53.558;9.950;2024-02-23T05:32:13;1.57;;;0.63;;
77089;SDS011;66028;53.558;9.950;2024-02-23T05:34:39;3.17;;;1.10;;
77089;SDS011;66028;53.558;9.950;2024-02-23T05:37:04;1.57;;;0.70;;
77089;SDS011;66028;53.558;9.950;2024-02-23T05:39:29;1.27;;;0.73;;
77089;SDS011;66028;53.558;9.950;2024-02-23T05:41:54;3.33;;;0.90;;
77089;SDS011;66028;53.558;9.950;2024-02-23T05:44:20;2.45;;;0.82;;
77089;SDS011;66028;53.558;9.950;2024-02-23T05:46:45;1.20;;;0.60;;
77089;SDS011;66028;53.558;9.950;2024-02-23T05:49:10;1.80;;;0.80;;
77089;SDS011;66028;53.558;9.950;2024-02-23T05:51:36;2.73;;;1.17;;
77089;SDS011;66028;53.558;9.950;2024-02-23T05:54:01;1.30;;;0.40;;
77089;SDS011;66028;53.558;9.950;2024-02-23T05:56:26;2.00;;;0.67;;
77089;SDS011;66028;53.558;9.950;2024-02-23T05:58:51;1.70;;;0.60;;
77089;SDS011;66028;53.558;9.950;2024-02-23T06:01:17;2.20;;;0.60;;
77089;SDS011;66028;53.558;9.950;2024-02-23T06:03:43;1.70;;;0.55;;
77089;SDS011;66028;53.558;9.950;2024-02-23T06:06:09;1.92;;;0.52;;
77089;SDS011;66028;53.558;9.950;2024-02-23T06:08:35;2.50;;;0.70;;
77089;SDS011;66028;53.558;9.950;2024-02-23T06:11:01;1.27;;;0.55;;
77089;SDS011;66028;53.558;9.950;2024-02-23T06:13:28;2.50;;;0.30;;
77089;SDS011;66028;53.558;9.950;2024-02-23T06:15:53;2.50;;;0.40;;
77089;SDS011;66028;53.558;9.950;2024-02-23T06:18:19;1.50;;;0.70;;
77089;SDS011;66028;53.558;9.950;2024-02-23T06:20:44;1.90;;;0.70;;
77089;SDS011;66028;53.558;9.950;2024-02-23T06:23:09;2.30;;;0.53;;
77089;SDS011;66028;53.558;9.950;2024-02-23T06:25:34;1.23;;;0.50;;
77089;SDS011;66028;53.558;9.950;2024-02-23T06:28:00;3.83;;;0.73;;
77089;SDS011;66028;53.558;9.950;2024-02-23T06:30:25;2.10;;;0.40;;
77089;SDS011;66028;53.558;9.950;2024-02-23T06:32:50;1.70;;;0.67;;
77089;SDS011;66028;53.558;9.950;2024-02-23T06:35:15;1.63;;;0.60;;
77089;SDS011;66028;53.558;9.950;2024-02-23T06:37:41;2.67;;;0.90;;
77089;SDS011;66028;53.558;9.950;2024-02-23T06:40:06;2.80;;;0.57;;
77089;SDS011;66028;53.558;9.950;2024-02-23T06:42:32;2.88;;;0.70;;
77089;SDS011;66028;53.558;9.950;2024-02-23T06:44:58;2.92;;;0.60;;
77089;SDS011;66028;53.558;9.950;2024-02-23T06:47:23;1.73;;;0.60;;
77089;SDS011;66028;53.558;9.950;2024-02-23T06:49:49;2.72;;;0.50;;
77089;SDS011;66028;53.558;9.950;2024-02-23T06:52:14;3.17;;;0.77;;
77089;SDS011;66028;53.558;9.950;2024-02-23T06:54:40;1.97;;;0.60;;
77089;SDS011;66028;53.558;9.950;2024-02-23T06:57:05;3.97;;;1.10;;
77089;SDS011;66028;53.558;9.950;2024-02-23T06:59:30;3.07;;;1.07;;
77089;SDS011;66028;53.558;9.950;2024-02-23T07:01:57;1.95;;;0.75;;
77089;SDS011;66028;53.558;9.950;2024-02-23T07:04:22;2.43;;;1.27;;
77089;SDS011;66028;53.558;9.950;2024-02-23T07:06:47;1.53;;;0.83;;
77089;SDS011;66028;53.558;9.950;2024-02-23T07:09:12;3.37;;;1.00;;
77089;SDS011;66028;53.558;9.950;2024-02-23T07:11:38;5.40;;;1.25;;
77089;SDS011;66028;53.558;9.950;2024-02-23T07:14:04;4.57;;;1.10;;
77089;SDS011;66028;53.558;9.950;2024-02-23T07:16:30;3.30;;;0.73;;
77089;SDS011;66028;53.558;9.950;2024-02-23T07:18:55;4.93;;;1.20;;
77089;SDS011;66028;53.558;9.950;2024-02-23T07:21:21;4.78;;;1.20;;
77089;SDS011;66028;53.558;9.950;2024-02-23T07:23:47;9.80;;;1.63;;
77089;SDS011;66028;53.558;9.950;2024-02-23T07:26:12;7.27;;;1.50;;
77089;SDS011;66028;53.558;9.950;2024-02-23T07:28:37;2.43;;;0.93;;
77089;SDS011;66028;53.558;9.950;2024-02-23T07:31:03;4.77;;;0.97;;
77089;SDS011;66028;53.558;9.950;2024-02-23T07:33:28;3.67;;;0.85;;
77089;SDS011;66028;53.558;9.950;2024-02-23T07:35:53;5.20;;;1.60;;
77089;SDS011;66028;53.558;9.950;2024-02-23T07:38:18;6.30;;;1.83;;
77089;SDS011;66028;53.558;9.950;2024-02-23T07:40:44;5.35;;;1.85;;
77089;SDS011;66028;53.558;9.950;2024-02-23T07:43:09;5.40;;;1.20;;
77089;SDS011;66028;53.558;9.950;2024-02-23T07:45:38;5.35;;;1.40;;
77089;SDS011;66028;53.558;9.950;2024-02-23T07:48:04;2.17;;;1.00;;
77089;SDS011;66028;53.558;9.950;2024-02-23T07:50:29;2.60;;;1.20;;
77089;SDS011;66028;53.558;9.950;2024-02-23T07:52:55;3.00;;;1.05;;
77089;SDS011;66028;53.558;9.950;2024-02-23T07:55:20;5.20;;;1.03;;
77089;SDS011;66028;53.558;9.950;2024-02-23T07:57:45;1.97;;;1.00;;
77089;SDS011;66028;53.558;9.950;2024-02-23T08:00:11;2.70;;;1.10;;
77089;SDS011;66028;53.558;9.950;2024-02-23T08:02:36;3.10;;;1.25;;
77089;SDS011;66028;53.558;9.950;2024-02-23T08:05:02;4.60;;;1.20;;
77089;SDS011;66028;53.558;9.950;2024-02-23T08:07:28;2.35;;;0.73;;
77089;SDS011;66028;53.558;9.950;2024-02-23T08:09:55;6.13;;;1.50;;
77089;SDS011;66028;53.558;9.950;2024-02-23T08:12:21;5.27;;;0.90;;
77089;SDS011;66028;53.558;9.950;2024-02-23T08:14:46;1.90;;;0.73;;
77089;SDS011;66028;53.558;9.950;2024-02-23T08:17:13;3.28;;;0.82;;
77089;SDS011;66028;53.558;9.950;2024-02-23T08:19:39;2.10;;;0.73;;
77089;SDS011;66028;53.558;9.950;2024-02-23T08:22:04;3.17;;;1.13;;
77089;SDS011;66028;53.558;9.950;2024-02-23T08:24:29;5.27;;;0.70;;
77089;SDS011;66028;53.558;9.950;2024-02-23T08:26:55;1.97;;;0.67;;
77089;SDS011;66028;53.558;9.950;2024-02-23T08:29:20;3.47;;;1.20;;
77089;SDS011;66028;53.558;9.950;2024-02-23T08:31:45;4.15;;;1.05;;
77089;SDS011;66028;53.558;9.950;2024-02-23T08:34:11;1.73;;;0.90;;
77089;SDS011;66028;53.558;9.950;2024-02-23T08:39:01;5.13;;;0.83;;
77089;SDS011;66028;53.558;9.950;2024-02-23T08:41:27;2.10;;;0.70;;
77089;SDS011;66028;53.558;9.950;2024-02-23T08:46:19;3.10;;;0.55;;
77089;SDS011;66028;53.558;9.950;2024-02-23T08:51:10;1.90;;;0.83;;
77089;SDS011;66028;53.558;9.950;2024-02-23T08:56:02;5.50;;;1.17;;
77089;SDS011;66028;53.558;9.950;2024-02-23T09:00:53;4.43;;;1.27;;
77089;SDS011;66028;53.558;9.950;2024-02-23T09:03:19;4.07;;;1.50;;
77089;SDS011;66028;53.558;9.950;2024-02-23T09:05:44;4.33;;;0.97;;
77089;SDS011;66028;53.558;9.950;2024-02-23T09:08:11;1.63;;;0.30;;
77089;SDS011;66028;53.558;9.950;2024-02-23T09:13:02;4.93;;;0.80;;
77089;SDS011;66028;53.558;9.950;2024-02-23T09:15:28;2.95;;;0.85;;
77089;SDS011;66028;53.558;9.950;2024-02-23T09:20:18;3.43;;;1.50;;
77089;SDS011;66028;53.558;9.950;2024-02-23T09:22:44;2.73;;;0.63;;
77089;SDS011;66028;53.558;9.950;2024-02-23T09:27:34;2.73;;;0.67;;
77089;SDS011;66028;53.558;9.950;2024-02-23T09:30:04;2.25;;;0.70;;
77089;SDS011;66028;53.558;9.950;2024-02-23T09:34:54;2.43;;;0.77;;
77089;SDS011;66028;53.558;9.950;2024-02-23T09:37:20;3.30;;;0.73;;
77089;SDS011;66028;53.558;9.950;2024-02-23T09:39:45;6.10;;;0.60;;
77089;SDS011;66028;53.558;9.950;2024-02-23T09:44:36;3.78;;;0.85;;
77089;SDS011;66028;53.558;9.950;2024-02-23T09:49:38;1.77;;;0.60;;
77089;SDS011;66028;53.558;9.950;2024-02-23T09:52:07;6.47;;;0.93;;
77089;SDS011;66028;53.558;9.950;2024-02-23T09:54:34;2.53;;;0.77;;
77089;SDS011;66028;53.558;9.950;2024-02-23T09:59:26;3.22;;;0.63;;
77089;SDS011;66028;53.558;9.950;2024-02-23T10:01:53;3.35;;;0.80;;
77089;SDS011;66028;53.558;9.950;2024-02-23T10:04:18;4.35;;;0.70;;
77089;SDS011;66028;53.558;9.950;2024-02-23T10:09:09;4.67;;;1.50;;
77089;SDS011;66028;53.558;9.950;2024-02-23T10:11:37;2.58;;;0.50;;
77089;SDS011;66028;53.558;9.950;2024-02-23T10:16:27;6.47;;;1.17;;
77089;SDS011;66028;53.558;9.950;2024-02-23T10:21:18;2.25;;;0.57;;
77089;SDS011;66028;53.558;9.950;2024-02-23T10:26:09;3.50;;;0.90;;
77089;SDS011;66028;53.558;9.950;2024-02-23T10:31:03;3.22;;;0.68;;
77089;SDS011;66028;53.558;9.950;2024-02-23T10:33:29;2.63;;;0.57;;
77089;SDS011;66028;53.558;9.950;2024-02-23T10:35:56;4.75;;;0.90;;
77089;SDS011;66028;53.558;9.950;2024-02-23T10:38:23;5.57;;;1.05;;
77089;SDS011;66028;53.558;9.950;2024-02-23T10:43:16;3.00;;;0.85;;
77089;SDS011;66028;53.558;9.950;2024-02-23T10:45:45;4.10;;;1.17;;
77089;SDS011;66028;53.558;9.950;2024-02-23T10:48:11;3.63;;;0.77;;
77089;SDS011;66028;53.558;9.950;2024-02-23T10:53:04;4.10;;;0.60;;
77089;SDS011;66028;53.558;9.950;2024-02-23T10:55:33;3.17;;;0.70;;
77089;SDS011;66028;53.558;9.950;2024-02-23T10:58:03;4.05;;;0.68;;
77089;SDS011;66028;53.558;9.950;2024-02-23T11:00:32;3.85;;;0.68;;
77089;SDS011;66028;53.558;9.950;2024-02-23T11:05:24;1.50;;;0.63;;
77089;SDS011;66028;53.558;9.950;2024-02-23T11:07:50;3.10;;;0.73;;
77089;SDS011;66028;53.558;9.950;2024-02-23T11:10:16;1.77;;;0.52;;
77089;SDS011;66028;53.558;9.950;2024-02-23T11:15:08;6.40;;;0.80;;
77089;SDS011;66028;53.558;9.950;2024-02-23T11:20:03;1.77;;;0.35;;
77089;SDS011;66028;53.558;9.950;2024-02-23T11:22:33;2.67;;;0.30;;
77089;SDS011;66028;53.558;9.950;2024-02-23T11:25:00;1.17;;;0.60;;
77089;SDS011;66028;53.558;9.950;2024-02-23T11:27:31;3.83;;;0.80;;
77089;SDS011;66028;53.558;9.950;2024-02-23T11:30:04;3.53;;;0.88;;
77089;SDS011;66028;53.558;9.950;2024-02-23T11:32:45;3.63;;;0.82;;
77089;SDS011;66028;53.558;9.950;2024-02-23T11:35:13;3.38;;;0.55;;
77089;SDS011;66028;53.558;9.950;2024-02-23T11:37:52;3.00;;;1.00;;
77089;SDS011;66028;53.558;9.950;2024-02-23T11:40:24;4.07;;;0.82;;
77089;SDS011;66028;53.558;9.950;2024-02-23T11:42:50;3.20;;;0.50;;
77089;SDS011;66028;53.558;9.950;2024-02-23T11:47:41;3.27;;;0.87;;
77089;SDS011;66028;53.558;9.950;2024-02-23T11:50:07;3.65;;;0.73;;
77089;SDS011;66028;53.558;9.950;2024-02-23T11:52:34;1.67;;;0.60;;
77089;SDS011;66028;53.558;9.950;2024-02-23T11:57:24;4.93;;;0.40;;
77089;SDS011;66028;53.558;9.950;2024-02-23T11:59:50;2.60;;;0.70;;
77089;SDS011;66028;53.558;9.950;2024-02-23T12:02:17;4.50;;;0.50;;
77089;SDS011;66028;53.558;9.950;2024-02-23T12:07:07;1.87;;;0.33;;
77089;SDS011;66028;53.558;9.950;2024-02-23T12:09:33;2.80;;;0.50;;
77089;SDS011;66028;53.558;9.950;2024-02-23T12:11:58;3.90;;;0.80;;
77089;SDS011;66028;53.558;9.950;2024-02-23T12:14:24;2.05;;;0.40;;
77089;SDS011;66028;53.558;9.950;2024-02-23T12:19:16;1.60;;;0.47;;
77089;SDS011;66028;53.558;9.950;2024-02-23T12:24:09;3.65;;;0.70;;
77089;SDS011;66028;53.558;9.950;2024-02-23T12:29:01;2.40;;;0.43;;
77089;SDS011;66028;53.558;9.950;2024-02-23T12:31:27;0.70;;;0.32;;
77089;SDS011;66028;53.558;9.950;2024-02-23T12:36:18;3.40;;;0.30;;
77089;SDS011;66028;53.558;9.950;2024-02-23T12:38:43;3.00;;;0.80;;
77089;SDS011;66028;53.558;9.950;2024-02-23T12:41:09;4.60;;;0.83;;
77089;SDS011;66028;53.558;9.950;2024-02-23T12:43:34;3.90;;;0.80;;
77089;SDS011;66028;53.558;9.950;2024-02-23T12:48:26;2.65;;;0.40;;
77089;SDS011;66028;53.558;9.950;2024-02-23T12:53:33;0.60;;;0.30;;
77089;SDS011;66028;53.558;9.950;2024-02-23T12:56:03;1.25;;;0.38;;
77089;SDS011;66028;53.558;9.950;2024-02-23T12:58:38;2.35;;;0.52;;
77089;SDS011;66028;53.558;9.950;2024-02-23T13:01:04;1.88;;;0.40;;
77089;SDS011;66028;53.558;9.950;2024-02-23T13:03:31;4.65;;;0.47;;
77089;SDS011;66028;53.558;9.950;2024-02-23T13:08:22;3.92;;;0.30;;
77089;SDS011;66028;53.558;9.950;2024-02-23T13:13:14;3.28;;;0.40;;
77089;SDS011;66028;53.558;9.950;2024-02-23T13:18:05;1.98;;;0.40;;
77089;SDS011;66028;53.558;9.950;2024-02-23T13:22:56;4.10;;;0.70;;
77089;SDS011;66028;53.558;9.950;2024-02-23T13:27:46;2.73;;;0.60;;
77089;SDS011;66028;53.558;9.950;2024-02-23T13:32:37;1.50;;;0.63;;
77089;SDS011;66028;53.558;9.950;2024-02-23T13:37:29;2.28;;;0.47;;
77089;SDS011;66028;53.558;9.950;2024-02-23T13:42:20;3.20;;;0.45;;
77089;SDS011;66028;53.558;9.950;2024-02-23T13:47:11;3.10;;;0.63;;
77089;SDS011;66028;53.558;9.950;2024-02-23T13:52:02;0.83;;;0.30;;
77089;SDS011;66028;53.558;9.950;2024-02-23T13:56:52;1.07;;;0.30;;
77089;SDS011;66028;53.558;9.950;2024-02-23T13:59:18;1.33;;;0.63;;
77089;SDS011;66028;53.558;9.950;2024-02-23T14:04:10;2.17;;;0.28;;
77089;SDS011;66028;53.558;9.950;2024-02-23T14:09:00;2.60;;;0.47;;
77089;SDS011;66028;53.558;9.950;2024-02-23T14:11:28;4.40;;;0.68;;
77089;SDS011;66028;53.558;9.950;2024-02-23T14:16:18;5.30;;;1.33;;
77089;SDS011;66028;53.558;9.950;2024-02-23T14:21:09;4.72;;;1.30;;
77089;SDS011;66028;53.558;9.950;2024-02-23T14:23:36;7.28;;;2.58;;
77089;SDS011;66028;53.558;9.950;2024-02-23T14:26:02;2.88;;;0.30;;
77089;SDS011;66028;53.558;9.950;2024-02-23T14:28:28;4.47;;;1.25;;
77089;SDS011;66028;53.558;9.950;2024-02-23T14:30:54;3.30;;;0.30;;
77089;SDS011;66028;53.558;9.950;2024-02-23T14:33:19;2.55;;;0.75;;
77089;SDS011;66028;53.558;9.950;2024-02-23T14:35:45;2.15;;;0.40;;
77089;SDS011;66028;53.558;9.950;2024-02-23T14:38:11;3.38;;;0.40;;
77089;SDS011;66028;53.558;9.950;2024-02-23T14:40:37;3.85;;;0.32;;
77089;SDS011;66028;53.558;9.950;2024-02-23T14:43:03;1.92;;;0.43;;
77089;SDS011;66028;53.558;9.950;2024-02-23T14:45:28;4.25;;;0.95;;
77089;SDS011;66028;53.558;9.950;2024-02-23T14:47:54;2.55;;;0.30;;
77089;SDS011;66028;53.558;9.950;2024-02-23T14:50:19;2.28;;;0.32;;
77089;SDS011;66028;53.558;9.950;2024-02-23T14:52:45;1.23;;;0.30;;
77089;SDS011;66028;53.558;9.950;2024-02-23T14:55:10;2.42;;;0.60;;
77089;SDS011;66028;53.558;9.950;2024-02-23T14:57:36;2.95;;;0.40;;
77089;SDS011;66028;53.558;9.950;2024-02-23T15:00:03;1.35;;;0.40;;
77089;SDS011;66028;53.558;9.950;2024-02-23T15:02:29;1.83;;;0.15;;
77089;SDS011;66028;53.558;9.950;2024-02-23T15:04:54;3.37;;;0.50;;
77089;SDS011;66028;53.558;9.950;2024-02-23T15:09:45;1.83;;;0.20;;
77089;SDS011;66028;53.558;9.950;2024-02-23T15:14:36;2.03;;;0.50;;
77089;SDS011;66028;53.558;9.950;2024-02-23T15:17:02;1.13;;;0.20;;
77089;SDS011;66028;53.558;9.950;2024-02-23T15:21:53;1.43;;;0.30;;
77089;SDS011;66028;53.558;9.950;2024-02-23T15:26:45;2.50;;;0.30;;
77089;SDS011;66028;53.558;9.950;2024-02-23T15:29:10;1.38;;;0.30;;
77089;SDS011;66028;53.558;9.950;2024-02-23T15:31:37;1.10;;;0.32;;
77089;SDS011;66028;53.558;9.950;2024-02-23T15:34:04;3.45;;;0.35;;
77089;SDS011;66028;53.558;9.950;2024-02-23T15:38:54;2.57;;;0.43;;
77089;SDS011;66028;53.558;9.950;2024-02-23T15:41:24;2.13;;;0.63;;
77089;SDS011;66028;53.558;9.950;2024-02-23T15:43:50;1.52;;;0.40;;
77089;SDS011;66028;53.558;9.950;2024-02-23T15:48:40;2.53;;;0.40;;
77089;SDS011;66028;53.558;9.950;2024-02-23T15:53:31;2.80;;;0.30;;
77089;SDS011;66028;53.558;9.950;2024-02-23T15:58:22;0.77;;;0.17;;
77089;SDS011;66028;53.558;9.950;2024-02-23T16:03:12;0.77;;;0.25;;
77089;SDS011;66028;53.558;9.950;2024-02-23T16:08:03;1.17;;;0.20;;
77089;SDS011;66028;53.558;9.950;2024-02-23T16:10:29;3.13;;;0.32;;
77089;SDS011;66028;53.558;9.950;2024-02-23T16:12:55;3.42;;;0.40;;
77089;SDS011;66028;53.558;9.950;2024-02-23T16:15:23;2.13;;;0.32;;
77089;SDS011;66028;53.558;9.950;2024-02-23T16:20:14;2.40;;;0.67;;
77089;SDS011;66028;53.558;9.950;2024-02-23T16:25:06;4.78;;;0.30;;
77089;SDS011;66028;53.558;9.950;2024-02-23T16:27:32;1.67;;;0.20;;
77089;SDS011;66028;53.558;9.950;2024-02-23T16:32:22;1.87;;;0.37;;
77089;SDS011;66028;53.558;9.950;2024-02-23T16:37:13;3.20;;;0.37;;
77089;SDS011;66028;53.558;9.950;2024-02-23T16:42:04;1.03;;;0.20;;
77089;SDS011;66028;53.558;9.950;2024-02-23T16:44:30;1.30;;;0.22;;
77089;SDS011;66028;53.558;9.950;2024-02-23T16:49:20;3.47;;;0.40;;
77089;SDS011;66028;53.558;9.950;2024-02-23T16:54:11;3.47;;;0.40;;
77089;SDS011;66028;53.558;9.950;2024-02-23T16:56:38;2.42;;;0.20;;
77089;SDS011;66028;53.558;9.950;2024-02-23T17:01:28;1.80;;;0.50;;
77089;SDS011;66028;53.558;9.950;2024-02-23T17:06:20;0.60;;;0.20;;
77089;SDS011;66028;53.558;9.950;2024-02-23T17:11:12;3.15;;;0.50;;
77089;SDS011;66028;53.558;9.950;2024-02-23T17:13:37;2.03;;;0.77;;
77089;SDS011;66028;53.558;9.950;2024-02-23T17:16:03;1.27;;;0.57;;
77089;SDS011;66028;53.558;9.950;2024-02-23T17:18:28;3.42;;;0.20;;
77089;SDS011;66028;53.558;9.950;2024-02-23T17:20:54;1.27;;;0.40;;
77089;SDS011;66028;53.558;9.950;2024-02-23T17:23:19;2.80;;;0.60;;
77089;SDS011;66028;53.558;9.950;2024-02-23T17:25:44;3.60;;;0.70;;
77089;SDS011;66028;53.558;9.950;2024-02-23T17:28:10;6.03;;;1.47;;
77089;SDS011;66028;53.558;9.950;2024-02-23T17:30:38;1.50;;;0.55;;
77089;SDS011;66028;53.558;9.950;2024-02-23T17:33:04;2.00;;;0.70;;
77089;SDS011;66028;53.558;9.950;2024-02-23T17:35:30;4.43;;;0.80;;
77089;SDS011;66028;53.558;9.950;2024-02-23T17:37:56;3.10;;;0.70;;
77089;SDS011;66028;53.558;9.950;2024-02-23T17:40:21;2.97;;;0.75;;
77089;SDS011;66028;53.558;9.950;2024-02-23T17:42:46;3.63;;;0.97;;
77089;SDS011;66028;53.558;9.950;2024-02-23T17:45:12;1.43;;;0.60;;
77089;SDS011;66028;53.558;9.950;2024-02-23T17:47:37;1.70;;;0.37;;
77089;SDS011;66028;53.558;9.950;2024-02-23T17:50:03;3.75;;;0.60;;
77089;SDS011;66028;53.558;9.950;2024-02-23T17:52:29;2.70;;;0.70;;
77089;SDS011;66028;53.558;9.950;2024-02-23T17:54:55;4.68;;;0.60;;
77089;SDS011;66028;53.558;9.950;2024-02-23T17:57:21;3.27;;;0.50;;
77089;SDS011;66028;53.558;9.950;2024-02-23T17:59:46;1.37;;;0.40;;